sensor_id;sensor_type;location;lat;lon;timestamp;P1;durP1;ratioP1;P2;durP2;ratioP2
4700;SDS011;8724;51.272;6.554;2022-08-04T00:00:50;3.83;;;1.90;;
4700;SDS011;8724;51.272;6.554;2022-08-04T00:03:27;6.20;;;1.83;;
4700;SDS011;8724;51.272;6.554;2022-08-04T00:06:07;4.07;;;2.10;;
4700;SDS011;8724;51.272;6.554;2022-08-04T00:08:43;5.37;;;2.03;;
4700;SDS011;8724;51.272;6.554;2022-08-04T00:11:14;2.33;;;1.60;;
4700;SDS011;8724;51.272;6.554;2022-08-04T00:13:49;3.53;;;1.80;;
4700;SDS011;8724;51.272;6.554;2022-08-04T00:16:29;4.50;;;2.20;;
4700;SDS011;8724;51.272;6.554;2022-08-04T00:19:05;9.30;;;1.93;;
4700;SDS011;8724;51.272;6.554;2022-08-04T00:21:38;3.70;;;1.87;;
4700;SDS011;8724;51.272;6.554;2022-08-04T00:24:08;2.73;;;1.87;;
4700;SDS011;8724;51.272;6.554;2022-08-04T00:26:39;4.13;;;1.60;;
4700;SDS011;8724;51.272;6.554;2022-08-04T00:29:09;3.07;;;1.57;;
4700;SDS011;8724;51.272;6.554;2022-08-04T00:31:38;3.90;;;1.77;;
4700;SDS011;8724;51.272;6.554;2022-08-04T00:34:23;4.17;;;2.00;;
4700;SDS011;8724;51.272;6.554;2022-08-04T00:36:53;4.00;;;2.03;;
4700;SDS011;8724;51.272;6.554;2022-08-04T00:39:23;4.83;;;2.10;;
4700;SDS011;8724;51.272;6.554;2022-08-04T00:41:57;3.80;;;2.60;;
4700;SDS011;8724;51.272;6.554;2022-08-04T00:44:52;4.97;;;2.13;;
4700;SDS011;8724;51.272;6.554;2022-08-04T00:47:38;5.00;;;1.70;;
4700;SDS011;8724;51.272;6.554;2022-08-04T00:50:22;5.80;;;2.57;;
4700;SDS011;8724;51.272;6.554;2022-08-04T00:53:00;3.20;;;1.83;;
4700;SDS011;8724;51.272;6.554;2022-08-04T00:55:41;4.33;;;2.20;;
4700;SDS011;8724;51.272;6.554;2022-08-04T00:58:22;2.27;;;1.57;;
4700;SDS011;8724;51.272;6.554;2022-08-04T01:00:59;3.53;;;1.80;;
4700;SDS011;8724;51.272;6.554;2022-08-04T01:03:36;2.50;;;1.97;;
4700;SDS011;8724;51.272;6.554;2022-08-04T01:06:17;2.77;;;2.13;;
4700;SDS011;8724;51.272;6.554;2022-08-04T01:09:02;3.00;;;1.60;;
4700;SDS011;8724;51.272;6.554;2022-08-04T01:11:55;3.57;;;2.40;;
4700;SDS011;8724;51.272;6.554;2022-08-04T01:14:42;5.13;;;1.70;;
4700;SDS011;8724;51.272;6.554;2022-08-04T01:17:25;3.63;;;1.83;;
4700;SDS011;8724;51.272;6.554;2022-08-04T01:20:03;5.60;;;1.80;;
4700;SDS011;8724;51.272;6.554;2022-08-04T01:22:48;1.63;;;1.47;;
4700;SDS011;8724;51.272;6.554;2022-08-04T01:25:40;1.63;;;1.40;;
4700;SDS011;8724;51.272;6.554;2022-08-04T01:29:01;2.83;;;1.43;;
4700;SDS011;8724;51.272;6.554;2022-08-04T01:31:34;3.33;;;2.30;;
4700;SDS011;8724;51.272;6.554;2022-08-04T01:34:10;4.23;;;1.83;;
4700;SDS011;8724;51.272;6.554;2022-08-04T01:36:43;3.83;;;2.20;;
4700;SDS011;8724;51.272;6.554;2022-08-04T01:39:15;4.27;;;1.90;;
4700;SDS011;8724;51.272;6.554;2022-08-04T01:42:02;2.80;;;1.93;;
4700;SDS011;8724;51.272;6.554;2022-08-04T01:44:37;3.77;;;1.93;;
4700;SDS011;8724;51.272;6.554;2022-08-04T01:47:08;4.73;;;2.43;;
4700;SDS011;8724;51.272;6.554;2022-08-04T01:49:36;4.60;;;1.63;;
4700;SDS011;8724;51.272;6.554;2022-08-04T01:52:07;2.80;;;1.70;;
4700;SDS011;8724;51.272;6.554;2022-08-04T01:54:37;2.70;;;1.50;;
4700;SDS011;8724;51.272;6.554;2022-08-04T01:57:08;2.77;;;1.70;;
4700;SDS011;8724;51.272;6.554;2022-08-04T01:59:58;3.00;;;1.90;;
4700;SDS011;8724;51.272;6.554;2022-08-04T02:02:29;8.17;;;2.70;;
4700;SDS011;8724;51.272;6.554;2022-08-04T02:04:57;5.10;;;2.10;;
4700;SDS011;8724;51.272;6.554;2022-08-04T02:07:39;1.70;;;1.60;;
4700;SDS011;8724;51.272;6.554;2022-08-04T02:10:17;2.67;;;2.20;;
4700;SDS011;8724;51.272;6.554;2022-08-04T02:12:54;5.33;;;2.10;;
4700;SDS011;8724;51.272;6.554;2022-08-04T02:15:29;3.03;;;2.00;;
4700;SDS011;8724;51.272;6.554;2022-08-04T02:18:08;4.97;;;1.57;;
4700;SDS011;8724;51.272;6.554;2022-08-04T02:20:43;3.87;;;1.37;;
4700;SDS011;8724;51.272;6.554;2022-08-04T02:23:13;4.90;;;1.60;;
4700;SDS011;8724;51.272;6.554;2022-08-04T02:25:43;5.17;;;2.13;;
4700;SDS011;8724;51.272;6.554;2022-08-04T02:28:15;3.27;;;2.13;;
4700;SDS011;8724;51.272;6.554;2022-08-04T02:30:53;2.00;;;1.47;;
4700;SDS011;8724;51.272;6.554;2022-08-04T02:33:34;4.00;;;1.97;;
4700;SDS011;8724;51.272;6.554;2022-08-04T02:36:05;2.80;;;1.80;;
4700;SDS011;8724;51.272;6.554;2022-08-04T02:38:52;2.80;;;1.83;;
4700;SDS011;8724;51.272;6.554;2022-08-04T02:41:23;2.73;;;2.03;;
4700;SDS011;8724;51.272;6.554;2022-08-04T02:43:55;4.67;;;2.27;;
4700;SDS011;8724;51.272;6.554;2022-08-04T02:46:27;4.87;;;1.80;;
4700;SDS011;8724;51.272;6.554;2022-08-04T02:48:57;4.10;;;2.00;;
4700;SDS011;8724;51.272;6.554;2022-08-04T02:51:30;2.70;;;1.90;;
4700;SDS011;8724;51.272;6.554;2022-08-04T02:54:02;2.97;;;1.90;;
4700;SDS011;8724;51.272;6.554;2022-08-04T02:56:31;5.47;;;1.60;;
4700;SDS011;8724;51.272;6.554;2022-08-04T02:59:03;5.50;;;2.20;;
4700;SDS011;8724;51.272;6.554;2022-08-04T03:01:33;2.70;;;1.50;;
4700;SDS011;8724;51.272;6.554;2022-08-04T03:04:10;6.20;;;2.10;;
4700;SDS011;8724;51.272;6.554;2022-08-04T03:16:22;2.40;;;1.93;;
4700;SDS011;8724;51.272;6.554;2022-08-04T03:19:27;3.03;;;1.87;;
4700;SDS011;8724;51.272;6.554;2022-08-04T03:22:22;7.47;;;2.90;;
4700;SDS011;8724;51.272;6.554;2022-08-04T03:25:33;6.40;;;2.30;;
4700;SDS011;8724;51.272;6.554;2022-08-04T03:31:40;3.87;;;1.80;;
4700;SDS011;8724;51.272;6.554;2022-08-04T03:34:32;6.67;;;1.93;;
4700;SDS011;8724;51.272;6.554;2022-08-04T03:37:16;4.97;;;2.07;;
4700;SDS011;8724;51.272;6.554;2022-08-04T03:40:13;3.50;;;2.47;;
4700;SDS011;8724;51.272;6.554;2022-08-04T03:43:14;5.23;;;3.90;;
4700;SDS011;8724;51.272;6.554;2022-08-04T03:46:38;7.87;;;2.40;;
4700;SDS011;8724;51.272;6.554;2022-08-04T03:49:38;7.03;;;3.00;;
4700;SDS011;8724;51.272;6.554;2022-08-04T03:52:32;4.90;;;3.17;;
4700;SDS011;8724;51.272;6.554;2022-08-04T03:55:43;8.63;;;2.40;;
4700;SDS011;8724;51.272;6.554;2022-08-04T03:58:37;6.20;;;2.00;;
4700;SDS011;8724;51.272;6.554;2022-08-04T04:01:22;5.40;;;2.50;;
4700;SDS011;8724;51.272;6.554;2022-08-04T04:04:28;6.57;;;2.10;;
4700;SDS011;8724;51.272;6.554;2022-08-04T04:10:37;4.07;;;2.90;;
4700;SDS011;8724;51.272;6.554;2022-08-04T04:16:20;6.37;;;4.07;;
4700;SDS011;8724;51.272;6.554;2022-08-04T04:19:10;4.60;;;3.60;;
4700;SDS011;8724;51.272;6.554;2022-08-04T04:25:14;7.13;;;2.50;;
4700;SDS011;8724;51.272;6.554;2022-08-04T04:28:00;3.93;;;1.70;;
4700;SDS011;8724;51.272;6.554;2022-08-04T04:31:02;3.30;;;2.07;;
4700;SDS011;8724;51.272;6.554;2022-08-04T04:33:50;4.90;;;2.37;;
4700;SDS011;8724;51.272;6.554;2022-08-04T04:36:33;5.17;;;2.37;;
4700;SDS011;8724;51.272;6.554;2022-08-04T04:39:18;4.93;;;2.57;;
4700;SDS011;8724;51.272;6.554;2022-08-04T04:42:04;5.97;;;2.50;;
4700;SDS011;8724;51.272;6.554;2022-08-04T04:45:01;6.40;;;2.20;;
4700;SDS011;8724;51.272;6.554;2022-08-04T04:47:39;4.53;;;2.40;;
4700;SDS011;8724;51.272;6.554;2022-08-04T04:50:51;4.23;;;2.13;;
4700;SDS011;8724;51.272;6.554;2022-08-04T04:53:28;4.73;;;2.90;;
4700;SDS011;8724;51.272;6.554;2022-08-04T04:56:04;4.53;;;2.33;;
4700;SDS011;8724;51.272;6.554;2022-08-04T04:58:39;4.37;;;2.83;;
4700;SDS011;8724;51.272;6.554;2022-08-04T05:01:15;18.27;;;14.27;;
4700;SDS011;8724;51.272;6.554;2022-08-04T05:04:06;34.23;;;28.63;;
4700;SDS011;8724;51.272;6.554;2022-08-04T05:06:57;17.70;;;13.77;;
4700;SDS011;8724;51.272;6.554;2022-08-04T05:09:48;10.10;;;8.50;;
4700;SDS011;8724;51.272;6.554;2022-08-04T05:12:36;9.53;;;6.30;;
4700;SDS011;8724;51.272;6.554;2022-08-04T05:15:41;8.03;;;4.83;;
4700;SDS011;8724;51.272;6.554;2022-08-04T05:18:13;4.33;;;3.13;;
4700;SDS011;8724;51.272;6.554;2022-08-04T05:20:49;4.50;;;3.00;;
4700;SDS011;8724;51.272;6.554;2022-08-04T05:23:22;6.80;;;3.20;;
4700;SDS011;8724;51.272;6.554;2022-08-04T05:25:55;3.57;;;3.27;;
4700;SDS011;8724;51.272;6.554;2022-08-04T05:28:27;3.10;;;2.80;;
4700;SDS011;8724;51.272;6.554;2022-08-04T05:31:03;4.57;;;3.00;;
4700;SDS011;8724;51.272;6.554;2022-08-04T05:33:39;6.07;;;3.00;;
4700;SDS011;8724;51.272;6.554;2022-08-04T05:36:14;3.03;;;2.60;;
4700;SDS011;8724;51.272;6.554;2022-08-04T05:39:05;3.37;;;2.20;;
4700;SDS011;8724;51.272;6.554;2022-08-04T05:41:39;5.77;;;2.20;;
4700;SDS011;8724;51.272;6.554;2022-08-04T05:44:14;3.17;;;2.87;;
4700;SDS011;8724;51.272;6.554;2022-08-04T05:46:46;3.33;;;2.67;;
4700;SDS011;8724;51.272;6.554;2022-08-04T05:49:20;4.13;;;2.73;;
4700;SDS011;8724;51.272;6.554;2022-08-04T05:51:49;6.07;;;2.33;;
4700;SDS011;8724;51.272;6.554;2022-08-04T05:54:19;4.27;;;3.10;;
4700;SDS011;8724;51.272;6.554;2022-08-04T05:56:48;4.00;;;2.50;;
4700;SDS011;8724;51.272;6.554;2022-08-04T05:59:18;3.50;;;2.40;;
4700;SDS011;8724;51.272;6.554;2022-08-04T06:01:51;3.13;;;2.70;;
4700;SDS011;8724;51.272;6.554;2022-08-04T06:04:24;5.60;;;2.80;;
4700;SDS011;8724;51.272;6.554;2022-08-04T06:06:57;3.83;;;2.17;;
4700;SDS011;8724;51.272;6.554;2022-08-04T06:09:25;2.40;;;2.20;;
4700;SDS011;8724;51.272;6.554;2022-08-04T06:11:54;3.53;;;2.70;;
4700;SDS011;8724;51.272;6.554;2022-08-04T06:14:31;2.67;;;2.47;;
4700;SDS011;8724;51.272;6.554;2022-08-04T06:17:04;4.47;;;3.30;;
4700;SDS011;8724;51.272;6.554;2022-08-04T06:19:54;2.43;;;2.10;;
4700;SDS011;8724;51.272;6.554;2022-08-04T06:22:45;3.73;;;3.00;;
4700;SDS011;8724;51.272;6.554;2022-08-04T06:25:16;2.67;;;2.13;;
4700;SDS011;8724;51.272;6.554;2022-08-04T06:27:47;4.40;;;2.90;;
4700;SDS011;8724;51.272;6.554;2022-08-04T06:30:17;2.90;;;2.43;;
4700;SDS011;8724;51.272;6.554;2022-08-04T06:32:47;3.30;;;2.40;;
4700;SDS011;8724;51.272;6.554;2022-08-04T06:35:30;3.87;;;2.87;;
4700;SDS011;8724;51.272;6.554;2022-08-04T06:38:00;5.37;;;3.43;;
4700;SDS011;8724;51.272;6.554;2022-08-04T06:40:29;8.10;;;2.57;;
4700;SDS011;8724;51.272;6.554;2022-08-04T06:43:00;7.57;;;2.97;;
4700;SDS011;8724;51.272;6.554;2022-08-04T06:45:32;4.07;;;2.90;;
4700;SDS011;8724;51.272;6.554;2022-08-04T06:48:05;5.10;;;2.53;;
4700;SDS011;8724;51.272;6.554;2022-08-04T06:50:34;7.00;;;2.97;;
4700;SDS011;8724;51.272;6.554;2022-08-04T06:53:23;3.00;;;2.30;;
4700;SDS011;8724;51.272;6.554;2022-08-04T06:55:52;2.73;;;2.27;;
4700;SDS011;8724;51.272;6.554;2022-08-04T06:58:22;4.13;;;2.57;;
4700;SDS011;8724;51.272;6.554;2022-08-04T07:00:52;4.23;;;2.40;;
4700;SDS011;8724;51.272;6.554;2022-08-04T07:03:28;5.37;;;3.97;;
4700;SDS011;8724;51.272;6.554;2022-08-04T07:05:58;4.37;;;3.97;;
4700;SDS011;8724;51.272;6.554;2022-08-04T07:08:34;6.90;;;3.63;;
4700;SDS011;8724;51.272;6.554;2022-08-04T07:11:02;4.40;;;3.40;;
4700;SDS011;8724;51.272;6.554;2022-08-04T07:13:31;4.63;;;2.90;;
4700;SDS011;8724;51.272;6.554;2022-08-04T07:16:00;3.67;;;2.30;;
4700;SDS011;8724;51.272;6.554;2022-08-04T07:18:30;2.80;;;2.50;;
4700;SDS011;8724;51.272;6.554;2022-08-04T07:20:59;5.67;;;2.60;;
4700;SDS011;8724;51.272;6.554;2022-08-04T07:23:27;2.63;;;2.17;;
4700;SDS011;8724;51.272;6.554;2022-08-04T07:25:56;3.17;;;2.87;;
4700;SDS011;8724;51.272;6.554;2022-08-04T07:28:38;3.30;;;2.60;;
4700;SDS011;8724;51.272;6.554;2022-08-04T07:31:08;3.70;;;2.50;;
4700;SDS011;8724;51.272;6.554;2022-08-04T07:33:59;3.03;;;2.13;;
4700;SDS011;8724;51.272;6.554;2022-08-04T07:36:47;7.97;;;2.67;;
4700;SDS011;8724;51.272;6.554;2022-08-04T07:39:22;4.50;;;2.23;;
4700;SDS011;8724;51.272;6.554;2022-08-04T07:41:54;4.50;;;2.30;;
4700;SDS011;8724;51.272;6.554;2022-08-04T07:44:24;2.63;;;2.03;;
4700;SDS011;8724;51.272;6.554;2022-08-04T07:46:52;4.93;;;2.57;;
4700;SDS011;8724;51.272;6.554;2022-08-04T07:49:22;2.40;;;1.90;;
4700;SDS011;8724;51.272;6.554;2022-08-04T07:52:12;23.00;;;20.57;;
4700;SDS011;8724;51.272;6.554;2022-08-04T07:54:41;61.03;;;54.17;;
4700;SDS011;8724;51.272;6.554;2022-08-04T07:57:10;49.63;;;43.23;;
4700;SDS011;8724;51.272;6.554;2022-08-04T07:59:58;32.10;;;28.60;;
4700;SDS011;8724;51.272;6.554;2022-08-04T08:02:37;25.20;;;22.47;;
4700;SDS011;8724;51.272;6.554;2022-08-04T08:05:08;19.73;;;17.63;;
4700;SDS011;8724;51.272;6.554;2022-08-04T08:07:39;14.77;;;12.97;;
4700;SDS011;8724;51.272;6.554;2022-08-04T08:10:20;10.97;;;9.80;;
4700;SDS011;8724;51.272;6.554;2022-08-04T08:12:48;11.20;;;8.27;;
4700;SDS011;8724;51.272;6.554;2022-08-04T08:15:18;7.30;;;6.60;;
4700;SDS011;8724;51.272;6.554;2022-08-04T08:17:47;6.00;;;5.17;;
4700;SDS011;8724;51.272;6.554;2022-08-04T08:20:28;5.07;;;4.67;;
4700;SDS011;8724;51.272;6.554;2022-08-04T08:22:59;5.10;;;4.53;;
4700;SDS011;8724;51.272;6.554;2022-08-04T08:25:29;9.07;;;8.23;;
4700;SDS011;8724;51.272;6.554;2022-08-04T08:27:58;12.13;;;10.90;;
4700;SDS011;8724;51.272;6.554;2022-08-04T08:30:29;9.90;;;8.90;;
4700;SDS011;8724;51.272;6.554;2022-08-04T08:32:59;7.67;;;6.97;;
4700;SDS011;8724;51.272;6.554;2022-08-04T08:35:43;7.70;;;7.00;;
4700;SDS011;8724;51.272;6.554;2022-08-04T08:38:22;6.53;;;5.93;;
4700;SDS011;8724;51.272;6.554;2022-08-04T08:40:57;5.60;;;5.20;;
4700;SDS011;8724;51.272;6.554;2022-08-04T08:43:43;4.90;;;4.50;;
4700;SDS011;8724;51.272;6.554;2022-08-04T08:46:43;4.83;;;4.43;;
4700;SDS011;8724;51.272;6.554;2022-08-04T08:52:40;3.47;;;3.27;;
4700;SDS011;8724;51.272;6.554;2022-08-04T08:55:31;2.90;;;2.60;;
4700;SDS011;8724;51.272;6.554;2022-08-04T08:58:19;2.80;;;2.47;;
4700;SDS011;8724;51.272;6.554;2022-08-04T09:01:01;5.23;;;2.50;;
4700;SDS011;8724;51.272;6.554;2022-08-04T09:07:04;2.03;;;1.93;;
4700;SDS011;8724;51.272;6.554;2022-08-04T09:09:55;4.47;;;4.10;;
4700;SDS011;8724;51.272;6.554;2022-08-04T09:12:38;13.50;;;12.03;;
4700;SDS011;8724;51.272;6.554;2022-08-04T09:15:14;13.00;;;11.60;;
4700;SDS011;8724;51.272;6.554;2022-08-04T09:17:46;12.50;;;11.20;;
4700;SDS011;8724;51.272;6.554;2022-08-04T09:20:20;10.23;;;9.23;;
4700;SDS011;8724;51.272;6.554;2022-08-04T09:22:59;11.10;;;9.03;;
4700;SDS011;8724;51.272;6.554;2022-08-04T09:25:39;9.27;;;8.40;;
4700;SDS011;8724;51.272;6.554;2022-08-04T09:28:16;7.30;;;4.20;;
4700;SDS011;8724;51.272;6.554;2022-08-04T09:31:10;6.87;;;4.00;;
4700;SDS011;8724;51.272;6.554;2022-08-04T09:33:43;6.07;;;3.03;;
4700;SDS011;8724;51.272;6.554;2022-08-04T09:36:19;4.93;;;2.57;;
4700;SDS011;8724;51.272;6.554;2022-08-04T09:39:09;6.17;;;2.60;;
4700;SDS011;8724;51.272;6.554;2022-08-04T09:41:50;3.33;;;1.97;;
4700;SDS011;8724;51.272;6.554;2022-08-04T09:44:29;3.20;;;2.20;;
4700;SDS011;8724;51.272;6.554;2022-08-04T09:47:20;4.20;;;2.17;;
4700;SDS011;8724;51.272;6.554;2022-08-04T09:50:15;5.00;;;2.03;;
4700;SDS011;8724;51.272;6.554;2022-08-04T09:53:10;3.00;;;2.03;;
4700;SDS011;8724;51.272;6.554;2022-08-04T09:55:49;2.77;;;2.00;;
4700;SDS011;8724;51.272;6.554;2022-08-04T09:58:39;11.53;;;8.50;;
4700;SDS011;8724;51.272;6.554;2022-08-04T10:01:19;10.63;;;9.50;;
4700;SDS011;8724;51.272;6.554;2022-08-04T10:03:50;6.63;;;6.03;;
4700;SDS011;8724;51.272;6.554;2022-08-04T10:06:31;4.80;;;4.07;;
4700;SDS011;8724;51.272;6.554;2022-08-04T10:09:27;7.33;;;3.33;;
4700;SDS011;8724;51.272;6.554;2022-08-04T10:12:15;3.67;;;2.20;;
4700;SDS011;8724;51.272;6.554;2022-08-04T10:15:03;2.57;;;2.03;;
4700;SDS011;8724;51.272;6.554;2022-08-04T10:17:38;3.13;;;1.90;;
4700;SDS011;8724;51.272;6.554;2022-08-04T10:23:22;2.97;;;2.07;;
4700;SDS011;8724;51.272;6.554;2022-08-04T10:26:24;2.73;;;1.50;;
4700;SDS011;8724;51.272;6.554;2022-08-04T10:28:59;1.83;;;1.73;;
4700;SDS011;8724;51.272;6.554;2022-08-04T10:31:34;5.90;;;1.90;;
4700;SDS011;8724;51.272;6.554;2022-08-04T10:34:08;2.60;;;2.10;;
4700;SDS011;8724;51.272;6.554;2022-08-04T10:36:40;4.73;;;2.17;;
4700;SDS011;8724;51.272;6.554;2022-08-04T10:39:17;3.23;;;2.00;;
4700;SDS011;8724;51.272;6.554;2022-08-04T10:42:11;2.70;;;2.30;;
4700;SDS011;8724;51.272;6.554;2022-08-04T10:44:52;3.20;;;2.03;;
4700;SDS011;8724;51.272;6.554;2022-08-04T10:47:33;3.47;;;2.63;;
4700;SDS011;8724;51.272;6.554;2022-08-04T10:50:05;6.40;;;4.30;;
4700;SDS011;8724;51.272;6.554;2022-08-04T10:52:41;9.20;;;2.77;;
4700;SDS011;8724;51.272;6.554;2022-08-04T10:55:15;3.67;;;1.87;;
4700;SDS011;8724;51.272;6.554;2022-08-04T10:57:47;5.00;;;2.30;;
4700;SDS011;8724;51.272;6.554;2022-08-04T11:00:18;2.03;;;1.83;;
4700;SDS011;8724;51.272;6.554;2022-08-04T11:02:54;4.20;;;2.40;;
4700;SDS011;8724;51.272;6.554;2022-08-04T11:05:29;5.10;;;2.47;;
4700;SDS011;8724;51.272;6.554;2022-08-04T11:08:11;5.17;;;2.20;;
4700;SDS011;8724;51.272;6.554;2022-08-04T11:10:47;4.30;;;1.80;;
4700;SDS011;8724;51.272;6.554;2022-08-04T11:13:22;3.67;;;1.80;;
4700;SDS011;8724;51.272;6.554;2022-08-04T11:15:55;4.33;;;2.20;;
4700;SDS011;8724;51.272;6.554;2022-08-04T11:18:32;2.30;;;2.10;;
4700;SDS011;8724;51.272;6.554;2022-08-04T11:21:07;3.37;;;1.90;;
4700;SDS011;8724;51.272;6.554;2022-08-04T11:23:43;7.73;;;2.03;;
4700;SDS011;8724;51.272;6.554;2022-08-04T11:26:18;3.37;;;2.07;;
4700;SDS011;8724;51.272;6.554;2022-08-04T11:28:52;2.27;;;2.07;;
4700;SDS011;8724;51.272;6.554;2022-08-04T11:31:34;2.27;;;1.33;;
4700;SDS011;8724;51.272;6.554;2022-08-04T11:34:20;3.17;;;1.83;;
4700;SDS011;8724;51.272;6.554;2022-08-04T11:36:51;4.40;;;2.33;;
4700;SDS011;8724;51.272;6.554;2022-08-04T11:39:27;2.40;;;1.80;;
4700;SDS011;8724;51.272;6.554;2022-08-04T11:42:00;2.50;;;1.90;;
4700;SDS011;8724;51.272;6.554;2022-08-04T11:44:35;4.37;;;2.50;;
4700;SDS011;8724;51.272;6.554;2022-08-04T11:47:10;2.93;;;2.20;;
4700;SDS011;8724;51.272;6.554;2022-08-04T11:49:53;3.23;;;2.33;;
4700;SDS011;8724;51.272;6.554;2022-08-04T11:52:27;4.43;;;2.33;;
4700;SDS011;8724;51.272;6.554;2022-08-04T11:54:57;6.50;;;5.80;;
4700;SDS011;8724;51.272;6.554;2022-08-04T11:57:29;5.87;;;4.93;;
4700;SDS011;8724;51.272;6.554;2022-08-04T12:00:04;3.23;;;2.37;;
4700;SDS011;8724;51.272;6.554;2022-08-04T12:02:48;6.43;;;1.93;;
4700;SDS011;8724;51.272;6.554;2022-08-04T12:05:43;6.97;;;2.60;;
4700;SDS011;8724;51.272;6.554;2022-08-04T12:08:21;2.77;;;2.00;;
4700;SDS011;8724;51.272;6.554;2022-08-04T12:10:58;3.03;;;2.00;;
4700;SDS011;8724;51.272;6.554;2022-08-04T12:13:35;2.10;;;1.90;;
4700;SDS011;8724;51.272;6.554;2022-08-04T12:16:12;4.23;;;2.67;;
4700;SDS011;8724;51.272;6.554;2022-08-04T12:18:44;6.10;;;3.13;;
4700;SDS011;8724;51.272;6.554;2022-08-04T12:21:24;3.37;;;2.60;;
4700;SDS011;8724;51.272;6.554;2022-08-04T12:24:00;2.60;;;2.33;;
4700;SDS011;8724;51.272;6.554;2022-08-04T12:26:33;3.90;;;2.20;;
4700;SDS011;8724;51.272;6.554;2022-08-04T12:29:04;3.30;;;2.47;;
4700;SDS011;8724;51.272;6.554;2022-08-04T12:31:39;3.13;;;2.30;;
4700;SDS011;8724;51.272;6.554;2022-08-04T12:34:12;3.07;;;2.30;;
4700;SDS011;8724;51.272;6.554;2022-08-04T12:36:47;7.20;;;2.30;;
4700;SDS011;8724;51.272;6.554;2022-08-04T12:39:21;10.37;;;3.10;;
4700;SDS011;8724;51.272;6.554;2022-08-04T12:41:55;11.63;;;2.90;;
4700;SDS011;8724;51.272;6.554;2022-08-04T12:44:32;6.80;;;2.70;;
4700;SDS011;8724;51.272;6.554;2022-08-04T12:47:04;4.13;;;2.30;;
4700;SDS011;8724;51.272;6.554;2022-08-04T12:49:56;3.90;;;2.60;;
4700;SDS011;8724;51.272;6.554;2022-08-04T12:52:32;4.77;;;2.70;;
4700;SDS011;8724;51.272;6.554;2022-08-04T12:55:27;5.43;;;3.37;;
4700;SDS011;8724;51.272;6.554;2022-08-04T12:57:57;5.10;;;2.77;;
4700;SDS011;8724;51.272;6.554;2022-08-04T13:00:28;4.80;;;3.20;;
4700;SDS011;8724;51.272;6.554;2022-08-04T13:03:08;8.30;;;4.90;;
4700;SDS011;8724;51.272;6.554;2022-08-04T13:05:39;19.57;;;17.23;;
4700;SDS011;8724;51.272;6.554;2022-08-04T13:08:10;14.57;;;13.17;;
4700;SDS011;8724;51.272;6.554;2022-08-04T13:10:42;13.67;;;8.43;;
4700;SDS011;8724;51.272;6.554;2022-08-04T13:13:14;5.83;;;3.70;;
4700;SDS011;8724;51.272;6.554;2022-08-04T13:15:53;3.17;;;2.80;;
4700;SDS011;8724;51.272;6.554;2022-08-04T13:18:23;2.90;;;2.53;;
4700;SDS011;8724;51.272;6.554;2022-08-04T13:21:06;4.93;;;2.87;;
4700;SDS011;8724;51.272;6.554;2022-08-04T13:23:49;4.83;;;2.53;;
4700;SDS011;8724;51.272;6.554;2022-08-04T13:26:48;4.33;;;2.30;;
4700;SDS011;8724;51.272;6.554;2022-08-04T13:29:34;2.30;;;2.07;;
4700;SDS011;8724;51.272;6.554;2022-08-04T13:32:24;2.50;;;1.77;;
4700;SDS011;8724;51.272;6.554;2022-08-04T13:34:54;2.13;;;1.93;;
4700;SDS011;8724;51.272;6.554;2022-08-04T13:37:25;2.30;;;2.10;;
4700;SDS011;8724;51.272;6.554;2022-08-04T13:40:03;3.70;;;2.50;;
4700;SDS011;8724;51.272;6.554;2022-08-04T13:42:33;6.47;;;2.70;;
4700;SDS011;8724;51.272;6.554;2022-08-04T13:45:04;7.13;;;2.67;;
4700;SDS011;8724;51.272;6.554;2022-08-04T13:47:35;6.03;;;2.70;;
4700;SDS011;8724;51.272;6.554;2022-08-04T13:50:06;4.00;;;2.23;;
4700;SDS011;8724;51.272;6.554;2022-08-04T13:52:38;3.20;;;2.70;;
4700;SDS011;8724;51.272;6.554;2022-08-04T13:55:18;8.33;;;2.43;;
4700;SDS011;8724;51.272;6.554;2022-08-04T13:57:49;3.30;;;2.40;;
4700;SDS011;8724;51.272;6.554;2022-08-04T14:00:21;5.00;;;1.93;;
4700;SDS011;8724;51.272;6.554;2022-08-04T14:02:58;3.20;;;1.93;;
4700;SDS011;8724;51.272;6.554;2022-08-04T14:08:35;2.70;;;2.37;;
4700;SDS011;8724;51.272;6.554;2022-08-04T14:11:14;2.20;;;2.00;;
4700;SDS011;8724;51.272;6.554;2022-08-04T14:14:14;3.03;;;2.53;;
4700;SDS011;8724;51.272;6.554;2022-08-04T14:16:55;4.23;;;2.63;;
4700;SDS011;8724;51.272;6.554;2022-08-04T14:19:26;3.40;;;2.40;;
4700;SDS011;8724;51.272;6.554;2022-08-04T14:22:02;2.87;;;2.10;;
4700;SDS011;8724;51.272;6.554;2022-08-04T14:24:31;2.30;;;2.10;;
4700;SDS011;8724;51.272;6.554;2022-08-04T14:27:00;4.43;;;2.30;;
4700;SDS011;8724;51.272;6.554;2022-08-04T14:29:35;2.33;;;1.77;;
4700;SDS011;8724;51.272;6.554;2022-08-04T14:32:05;10.50;;;4.00;;
4700;SDS011;8724;51.272;6.554;2022-08-04T14:34:40;6.13;;;2.40;;
4700;SDS011;8724;51.272;6.554;2022-08-04T14:37:12;5.30;;;2.40;;
4700;SDS011;8724;51.272;6.554;2022-08-04T14:39:46;3.20;;;2.90;;
4700;SDS011;8724;51.272;6.554;2022-08-04T14:42:40;13.83;;;12.07;;
4700;SDS011;8724;51.272;6.554;2022-08-04T14:45:30;14.20;;;12.80;;
4700;SDS011;8724;51.272;6.554;2022-08-04T14:48:00;11.20;;;10.13;;
4700;SDS011;8724;51.272;6.554;2022-08-04T14:50:33;10.00;;;9.00;;
4700;SDS011;8724;51.272;6.554;2022-08-04T14:53:04;6.03;;;4.23;;
4700;SDS011;8724;51.272;6.554;2022-08-04T14:55:34;4.73;;;2.90;;
4700;SDS011;8724;51.272;6.554;2022-08-04T14:58:05;2.90;;;2.43;;
4700;SDS011;8724;51.272;6.554;2022-08-04T15:00:54;3.80;;;1.97;;
4700;SDS011;8724;51.272;6.554;2022-08-04T15:03:23;3.53;;;2.47;;
4700;SDS011;8724;51.272;6.554;2022-08-04T15:05:52;2.57;;;1.80;;
4700;SDS011;8724;51.272;6.554;2022-08-04T15:08:31;3.33;;;2.27;;
4700;SDS011;8724;51.272;6.554;2022-08-04T15:10:59;2.00;;;1.90;;
4700;SDS011;8724;51.272;6.554;2022-08-04T15:13:31;5.90;;;2.67;;
4700;SDS011;8724;51.272;6.554;2022-08-04T15:16:00;3.00;;;2.50;;
4700;SDS011;8724;51.272;6.554;2022-08-04T15:18:34;7.73;;;2.27;;
4700;SDS011;8724;51.272;6.554;2022-08-04T15:21:04;4.33;;;2.20;;
4700;SDS011;8724;51.272;6.554;2022-08-04T15:23:34;3.77;;;2.20;;
4700;SDS011;8724;51.272;6.554;2022-08-04T15:26:05;6.60;;;2.30;;
4700;SDS011;8724;51.272;6.554;2022-08-04T15:28:39;4.30;;;2.60;;
4700;SDS011;8724;51.272;6.554;2022-08-04T15:31:12;8.50;;;3.27;;
4700;SDS011;8724;51.272;6.554;2022-08-04T15:34:02;5.60;;;2.80;;
4700;SDS011;8724;51.272;6.554;2022-08-04T15:36:34;7.97;;;2.60;;
4700;SDS011;8724;51.272;6.554;2022-08-04T15:39:15;9.10;;;5.47;;
4700;SDS011;8724;51.272;6.554;2022-08-04T15:41:52;27.80;;;23.33;;
4700;SDS011;8724;51.272;6.554;2022-08-04T15:44:45;8.20;;;4.60;;
4700;SDS011;8724;51.272;6.554;2022-08-04T15:47:24;7.33;;;3.53;;
4700;SDS011;8724;51.272;6.554;2022-08-04T15:50:07;14.30;;;3.10;;
4700;SDS011;8724;51.272;6.554;2022-08-04T15:55:39;9.93;;;3.67;;
4700;SDS011;8724;51.272;6.554;2022-08-04T15:58:10;8.93;;;3.30;;
4700;SDS011;8724;51.272;6.554;2022-08-04T16:03:43;3.40;;;3.10;;
4700;SDS011;8724;51.272;6.554;2022-08-04T16:06:41;4.53;;;2.40;;
4700;SDS011;8724;51.272;6.554;2022-08-04T16:09:19;7.23;;;3.80;;
4700;SDS011;8724;51.272;6.554;2022-08-04T16:21:16;6.67;;;3.37;;
4700;SDS011;8724;51.272;6.554;2022-08-04T16:26:45;5.47;;;2.97;;
4700;SDS011;8724;51.272;6.554;2022-08-04T16:29:31;4.27;;;2.80;;
4700;SDS011;8724;51.272;6.554;2022-08-04T16:32:08;3.70;;;2.50;;
4700;SDS011;8724;51.272;6.554;2022-08-04T16:34:44;4.67;;;2.40;;
4700;SDS011;8724;51.272;6.554;2022-08-04T16:37:22;4.23;;;2.93;;
4700;SDS011;8724;51.272;6.554;2022-08-04T16:43:01;5.90;;;2.30;;
4700;SDS011;8724;51.272;6.554;2022-08-04T16:45:38;2.90;;;2.60;;
4700;SDS011;8724;51.272;6.554;2022-08-04T16:48:22;5.57;;;2.80;;
4700;SDS011;8724;51.272;6.554;2022-08-04T16:50:55;4.80;;;2.83;;
4700;SDS011;8724;51.272;6.554;2022-08-04T16:53:34;6.80;;;2.30;;
4700;SDS011;8724;51.272;6.554;2022-08-04T16:56:20;5.43;;;3.00;;
4700;SDS011;8724;51.272;6.554;2022-08-04T16:58:59;4.40;;;3.00;;
4700;SDS011;8724;51.272;6.554;2022-08-04T17:01:34;10.57;;;7.13;;
4700;SDS011;8724;51.272;6.554;2022-08-04T17:04:04;12.03;;;10.80;;
4700;SDS011;8724;51.272;6.554;2022-08-04T17:06:39;5.13;;;3.83;;
4700;SDS011;8724;51.272;6.554;2022-08-04T17:09:11;6.00;;;2.63;;
4700;SDS011;8724;51.272;6.554;2022-08-04T17:11:41;5.50;;;2.10;;
4700;SDS011;8724;51.272;6.554;2022-08-04T17:14:11;4.60;;;2.23;;
4700;SDS011;8724;51.272;6.554;2022-08-04T17:16:41;2.97;;;1.90;;